sensor_id;sensor_type;location;lat;lon;timestamp;temperature;humidity
77247;SHT35;66279;42.820;23.374;2023-10-09T00:00:31;15.93;69.34
77247;SHT35;66279;42.820;23.374;2023-10-09T00:03:05;16.14;68.03
77247;SHT35;66279;42.820;23.374;2023-10-09T00:05:32;16.31;67.46
77247;SHT35;66279;42.820;23.374;2023-10-09T00:08:20;16.55;66.08
77247;SHT35;66279;42.820;23.374;2023-10-09T00:10:59;16.76;65.05
77247;SHT35;66279;42.820;23.374;2023-10-09T00:13:41;16.98;63.51
77247;SHT35;66279;42.820;23.374;2023-10-09T00:16:21;17.08;63.48
77247;SHT35;66279;42.820;23.374;2023-10-09T00:19:05;17.09;63.50
77247;SHT35;66279;42.820;23.374;2023-10-09T00:21:48;17.13;63.24
77247;SHT35;66279;42.820;23.374;2023-10-09T00:24:14;17.15;62.66
77247;SHT35;66279;42.820;23.374;2023-10-09T00:26:50;17.20;62.49
77247;SHT35;66279;42.820;23.374;2023-10-09T00:29:17;17.18;62.35
77247;SHT35;66279;42.820;23.374;2023-10-09T00:31:58;17.27;61.79
77247;SHT35;66279;42.820;23.374;2023-10-09T00:34:39;17.27;61.77
77247;SHT35;66279;42.820;23.374;2023-10-09T00:37:11;17.27;61.64
77247;SHT35;66279;42.820;23.374;2023-10-09T00:39:48;17.22;61.53
77247;SHT35;66279;42.820;23.374;2023-10-09T00:42:21;17.25;61.34
77247;SHT35;66279;42.820;23.374;2023-10-09T00:45:07;17.12;61.81
77247;SHT35;66279;42.820;23.374;2023-10-09T00:47:35;17.13;62.03
77247;SHT35;66279;42.820;23.374;2023-10-09T00:50:09;17.02;62.20
77247;SHT35;66279;42.820;23.374;2023-10-09T00:52:45;16.86;62.58
77247;SHT35;66279;42.820;23.374;2023-10-09T00:55:31;16.75;62.88
77247;SHT35;66279;42.820;23.374;2023-10-09T00:58:14;16.81;62.87
77247;SHT35;66279;42.820;23.374;2023-10-09T01:00:43;16.65;63.38
77247;SHT35;66279;42.820;23.374;2023-10-09T01:03:16;16.57;63.76
77247;SHT35;66279;42.820;23.374;2023-10-09T01:05:57;16.53;63.34
77247;SHT35;66279;42.820;23.374;2023-10-09T01:08:31;16.51;63.24
77247;SHT35;66279;42.820;23.374;2023-10-09T01:11:16;16.41;63.22
77247;SHT35;66279;42.820;23.374;2023-10-09T01:13:55;16.33;63.51
77247;SHT35;66279;42.820;23.374;2023-10-09T01:16:36;16.36;62.80
77247;SHT35;66279;42.820;23.374;2023-10-09T01:19:02;16.31;63.23
77247;SHT35;66279;42.820;23.374;2023-10-09T01:21:38;16.37;62.70
77247;SHT35;66279;42.820;23.374;2023-10-09T01:24:05;16.47;62.77
77247;SHT35;66279;42.820;23.374;2023-10-09T01:26:39;16.40;62.71
77247;SHT35;66279;42.820;23.374;2023-10-09T01:29:08;16.30;62.78
77247;SHT35;66279;42.820;23.374;2023-10-09T01:31:44;16.33;62.37
77247;SHT35;66279;42.820;23.374;2023-10-09T01:34:18;16.27;60.96
77247;SHT35;66279;42.820;23.374;2023-10-09T01:36:44;16.28;60.76
77247;SHT35;66279;42.820;23.374;2023-10-09T01:39:14;16.34;60.60
77247;SHT35;66279;42.820;23.374;2023-10-09T01:41:52;16.26;57.81
77247;SHT35;66279;42.820;23.374;2023-10-09T01:44:27;16.18;55.94
77247;SHT35;66279;42.820;23.374;2023-10-09T01:46:55;16.14;53.43
77247;SHT35;66279;42.820;23.374;2023-10-09T01:49:24;16.13;53.45
77247;SHT35;66279;42.820;23.374;2023-10-09T01:51:58;16.03;54.16
77247;SHT35;66279;42.820;23.374;2023-10-09T01:54:26;16.05;53.68
77247;SHT35;66279;42.820;23.374;2023-10-09T01:57:06;15.90;53.83
77247;SHT35;66279;42.820;23.374;2023-10-09T01:59:40;15.85;53.87
77247;SHT35;66279;42.820;23.374;2023-10-09T02:02:18;15.82;54.44
77247;SHT35;66279;42.820;23.374;2023-10-09T02:05:00;15.56;54.52
77247;SHT35;66279;42.820;23.374;2023-10-09T02:07:38;15.54;54.59
77247;SHT35;66279;42.820;23.374;2023-10-09T02:10:13;15.42;54.63
77247;SHT35;66279;42.820;23.374;2023-10-09T02:13:04;15.34;55.01
77247;SHT35;66279;42.820;23.374;2023-10-09T02:15:36;15.23;55.61
77247;SHT35;66279;42.820;23.374;2023-10-09T02:18:09;15.27;54.97
77247;SHT35;66279;42.820;23.374;2023-10-09T02:20:51;15.10;55.61
77247;SHT35;66279;42.820;23.374;2023-10-09T02:23:34;15.03;55.62
77247;SHT35;66279;42.820;23.374;2023-10-09T02:26:16;14.96;55.90
77247;SHT35;66279;42.820;23.374;2023-10-09T02:28:55;14.90;55.84
77247;SHT35;66279;42.820;23.374;2023-10-09T02:31:41;14.94;56.56
77247;SHT35;66279;42.820;23.374;2023-10-09T02:34:12;14.86;55.80
77247;SHT35;66279;42.820;23.374;2023-10-09T02:36:40;14.56;57.40
77247;SHT35;66279;42.820;23.374;2023-10-09T02:39:14;14.45;57.98
77247;SHT35;66279;42.820;23.374;2023-10-09T04:46:07;11.92;68.25
77247;SHT35;66279;42.820;23.374;2023-10-09T04:48:37;11.78;69.24
77247;SHT35;66279;42.820;23.374;2023-10-09T04:51:07;11.62;69.61
77247;SHT35;66279;42.820;23.374;2023-10-09T04:54:00;11.51;70.29
77247;SHT35;66279;42.820;23.374;2023-10-09T04:56:39;11.36;70.31
77247;SHT35;66279;42.820;23.374;2023-10-09T04:59:20;11.32;70.09
77247;SHT35;66279;42.820;23.374;2023-10-09T05:01:52;11.22;70.71
77247;SHT35;66279;42.820;23.374;2023-10-09T05:04:27;11.38;70.03
77247;SHT35;66279;42.820;23.374;2023-10-09T05:07:02;11.31;70.01
77247;SHT35;66279;42.820;23.374;2023-10-09T05:09:47;11.39;69.85
77247;SHT35;66279;42.820;23.374;2023-10-09T05:12:33;11.07;71.21
77247;SHT35;66279;42.820;23.374;2023-10-09T05:14:59;10.87;71.86
77247;SHT35;66279;42.820;23.374;2023-10-09T05:17:35;11.00;71.40
77247;SHT35;66279;42.820;23.374;2023-10-09T05:20:02;11.14;71.04
77247;SHT35;66279;42.820;23.374;2023-10-09T05:22:46;11.28;70.47
77247;SHT35;66279;42.820;23.374;2023-10-09T05:25:31;11.45;70.15
77247;SHT35;66279;42.820;23.374;2023-10-09T05:28:19;11.41;70.22
77247;SHT35;66279;42.820;23.374;2023-10-09T05:30:59;11.24;70.84
77247;SHT35;66279;42.820;23.374;2023-10-09T05:33:33;11.30;70.70
77247;SHT35;66279;42.820;23.374;2023-10-09T05:36:01;11.35;70.09
77247;SHT35;66279;42.820;23.374;2023-10-09T05:38:45;11.61;69.77
77247;SHT35;66279;42.820;23.374;2023-10-09T05:41:25;11.76;68.48
77247;SHT35;66279;42.820;23.374;2023-10-09T05:43:56;11.83;68.19
77247;SHT35;66279;42.820;23.374;2023-10-09T05:46:40;11.93;67.98
77247;SHT35;66279;42.820;23.374;2023-10-09T05:49:26;11.94;68.56
77247;SHT35;66279;42.820;23.374;2023-10-09T05:52:11;12.04;68.02
77247;SHT35;66279;42.820;23.374;2023-10-09T05:54:56;12.19;68.62
77247;SHT35;66279;42.820;23.374;2023-10-09T05:57:40;12.27;68.28
77247;SHT35;66279;42.820;23.374;2023-10-09T06:00:26;12.36;67.51
77247;SHT35;66279;42.820;23.374;2023-10-09T06:03:11;12.65;67.44
77247;SHT35;66279;42.820;23.374;2023-10-09T06:05:46;12.72;67.31
77247;SHT35;66279;42.820;23.374;2023-10-09T06:08:25;12.77;67.00
77247;SHT35;66279;42.820;23.374;2023-10-09T06:11:11;12.89;65.61
77247;SHT35;66279;42.820;23.374;2023-10-09T06:14:16;13.20;64.55
77247;SHT35;66279;42.820;23.374;2023-10-09T06:16:53;13.46;63.11
77247;SHT35;66279;42.820;23.374;2023-10-09T06:19:22;13.60;61.79
77247;SHT35;66279;42.820;23.374;2023-10-09T06:21:49;13.84;60.93
77247;SHT35;66279;42.820;23.374;2023-10-09T06:24:20;14.07;60.57
77247;SHT35;66279;42.820;23.374;2023-10-09T06:26:48;14.38;59.10
77247;SHT35;66279;42.820;23.374;2023-10-09T06:29:23;14.42;57.85
77247;SHT35;66279;42.820;23.374;2023-10-09T06:32:07;14.43;58.46
77247;SHT35;66279;42.820;23.374;2023-10-09T06:34:57;14.65;58.35
77247;SHT35;66279;42.820;23.374;2023-10-09T06:37:41;14.67;57.13
77247;SHT35;66279;42.820;23.374;2023-10-09T06:40:47;14.75;56.38
77247;SHT35;66279;42.820;23.374;2023-10-09T06:43:42;15.01;55.47
77247;SHT35;66279;42.820;23.374;2023-10-09T06:46:17;15.23;54.04
77247;SHT35;66279;42.820;23.374;2023-10-09T06:48:51;15.38;53.38
77247;SHT35;66279;42.820;23.374;2023-10-09T06:51:23;15.41;52.68
77247;SHT35;66279;42.820;23.374;2023-10-09T06:53:55;15.32;52.29
77247;SHT35;66279;42.820;23.374;2023-10-09T06:56:28;15.41;53.52
77247;SHT35;66279;42.820;23.374;2023-10-09T06:59:01;15.63;53.76
77247;SHT35;66279;42.820;23.374;2023-10-09T07:01:42;15.68;52.14
77247;SHT35;66279;42.820;23.374;2023-10-09T07:04:15;16.02;52.86
77247;SHT35;66279;42.820;23.374;2023-10-09T07:06:47;16.28;50.58
77247;SHT35;66279;42.820;23.374;2023-10-09T07:09:14;16.41;51.72
77247;SHT35;66279;42.820;23.374;2023-10-09T07:11:42;16.57;50.91
77247;SHT35;66279;42.820;23.374;2023-10-09T07:14:20;16.45;49.18
77247;SHT35;66279;42.820;23.374;2023-10-09T07:19:42;16.64;49.72
77247;SHT35;66279;42.820;23.374;2023-10-09T07:22:09;16.57;48.64
77247;SHT35;66279;42.820;23.374;2023-10-09T07:24:53;16.76;49.15
77247;SHT35;66279;42.820;23.374;2023-10-09T07:27:26;17.18;49.18
77247;SHT35;66279;42.820;23.374;2023-10-09T07:30:17;17.36;47.41
77247;SHT35;66279;42.820;23.374;2023-10-09T07:32:55;17.30;46.51
77247;SHT35;66279;42.820;23.374;2023-10-09T07:35:23;17.27;46.04
77247;SHT35;66279;42.820;23.374;2023-10-09T07:38:08;17.22;46.21
77247;SHT35;66279;42.820;23.374;2023-10-09T07:40:37;17.50;45.57
77247;SHT35;66279;42.820;23.374;2023-10-09T07:43:27;17.92;44.69
77247;SHT35;66279;42.820;23.374;2023-10-09T07:46:03;18.21;44.40
77247;SHT35;66279;42.820;23.374;2023-10-09T07:48:29;18.29;43.99
77247;SHT35;66279;42.820;23.374;2023-10-09T07:51:13;18.51;43.37
77247;SHT35;66279;42.820;23.374;2023-10-09T07:53:38;18.57;43.49
77247;SHT35;66279;42.820;23.374;2023-10-09T07:56:11;18.18;43.11
77247;SHT35;66279;42.820;23.374;2023-10-09T07:58:40;18.43;42.98
77247;SHT35;66279;42.820;23.374;2023-10-09T08:01:12;18.66;42.32
77247;SHT35;66279;42.820;23.374;2023-10-09T08:03:48;18.46;41.47
77247;SHT35;66279;42.820;23.374;2023-10-09T08:06:23;18.64;42.38
77247;SHT35;66279;42.820;23.374;2023-10-09T08:09:09;19.10;41.54
77247;SHT35;66279;42.820;23.374;2023-10-09T08:11:48;19.28;40.42
77247;SHT35;66279;42.820;23.374;2023-10-09T08:14:41;19.61;38.22
77247;SHT35;66279;42.820;23.374;2023-10-09T08:17:08;19.76;38.82
77247;SHT35;66279;42.820;23.374;2023-10-09T08:19:42;19.75;39.44
77247;SHT35;66279;42.820;23.374;2023-10-09T08:22:28;19.63;38.69
77247;SHT35;66279;42.820;23.374;2023-10-09T08:24:54;19.42;38.71
77247;SHT35;66279;42.820;23.374;2023-10-09T08:27:24;19.62;37.99
77247;SHT35;66279;42.820;23.374;2023-10-09T08:29:59;19.51;37.04
77247;SHT35;66279;42.820;23.374;2023-10-09T08:32:46;19.55;37.48
77247;SHT35;66279;42.820;23.374;2023-10-09T08:35:32;19.78;37.42
77247;SHT35;66279;42.820;23.374;2023-10-09T08:38:03;19.70;34.50
77247;SHT35;66279;42.820;23.374;2023-10-09T08:40:51;19.65;36.33
77247;SHT35;66279;42.820;23.374;2023-10-09T08:43:23;19.73;36.07
77247;SHT35;66279;42.820;23.374;2023-10-09T08:45:56;19.96;36.03
77247;SHT35;66279;42.820;23.374;2023-10-09T08:48:27;20.50;34.84
77247;SHT35;66279;42.820;23.374;2023-10-09T08:50:53;20.61;33.29
77247;SHT35;66279;42.820;23.374;2023-10-09T08:53:23;20.75;33.89
77247;SHT35;66279;42.820;23.374;2023-10-09T08:55:49;20.51;33.36
77247;SHT35;66279;42.820;23.374;2023-10-09T08:58:17;20.57;33.80
77247;SHT35;66279;42.820;23.374;2023-10-09T09:00:57;20.68;33.00
77247;SHT35;66279;42.820;23.374;2023-10-09T09:03:26;20.79;32.93
77247;SHT35;66279;42.820;23.374;2023-10-09T09:06:00;20.68;33.83
77247;SHT35;66279;42.820;23.374;2023-10-09T09:08:30;20.91;33.25
77247;SHT35;66279;42.820;23.374;2023-10-09T09:11:08;20.82;32.13
77247;SHT35;66279;42.820;23.374;2023-10-09T09:13:39;21.13;33.01
77247;SHT35;66279;42.820;23.374;2023-10-09T09:16:26;21.49;31.95
77247;SHT35;66279;42.820;23.374;2023-10-09T09:21:37;21.98;31.75
77247;SHT35;66279;42.820;23.374;2023-10-09T09:24:05;21.58;31.16
77247;SHT35;66279;42.820;23.374;2023-10-09T09:26:42;21.88;31.46
77247;SHT35;66279;42.820;23.374;2023-10-09T09:29:15;22.09;30.97
77247;SHT35;66279;42.820;23.374;2023-10-09T09:31:54;21.98;31.00
77247;SHT35;66279;42.820;23.374;2023-10-09T09:34:20;21.93;30.39
77247;SHT35;66279;42.820;23.374;2023-10-09T09:36:55;22.04;30.37
77247;SHT35;66279;42.820;23.374;2023-10-09T09:39:23;22.22;30.64
77247;SHT35;66279;42.820;23.374;2023-10-09T09:41:57;22.39;30.81
77247;SHT35;66279;42.820;23.374;2023-10-09T09:44:31;22.42;28.78
77247;SHT35;66279;42.820;23.374;2023-10-09T09:47:00;22.29;29.89
77247;SHT35;66279;42.820;23.374;2023-10-09T09:49:29;22.14;29.68
77247;SHT35;66279;42.820;23.374;2023-10-09T09:52:00;22.01;29.26
77247;SHT35;66279;42.820;23.374;2023-10-09T09:54:26;22.38;30.02
77247;SHT35;66279;42.820;23.374;2023-10-09T09:56:54;22.05;28.48
77247;SHT35;66279;42.820;23.374;2023-10-09T09:59:25;21.97;29.06
77247;SHT35;66279;42.820;23.374;2023-10-09T10:01:56;22.14;28.80
77247;SHT35;66279;42.820;23.374;2023-10-09T10:04:26;22.05;29.63
77247;SHT35;66279;42.820;23.374;2023-10-09T10:06:54;22.42;29.50
77247;SHT35;66279;42.820;23.374;2023-10-09T10:09:39;22.72;27.42
77247;SHT35;66279;42.820;23.374;2023-10-09T10:12:06;22.26;26.82
77247;SHT35;66279;42.820;23.374;2023-10-09T10:14:54;22.72;26.48
77247;SHT35;66279;42.820;23.374;2023-10-09T10:20:30;22.39;26.55
77247;SHT35;66279;42.820;23.374;2023-10-09T10:23:17;21.84;26.83
77247;SHT35;66279;42.820;23.374;2023-10-09T10:25:43;22.00;26.58
77247;SHT35;66279;42.820;23.374;2023-10-09T10:31:04;22.24;26.62
77247;SHT35;66279;42.820;23.374;2023-10-09T10:36:23;21.80;26.66
77247;SHT35;66279;42.820;23.374;2023-10-09T10:39:00;22.16;28.16
77247;SHT35;66279;42.820;23.374;2023-10-09T10:41:56;21.86;25.95
77247;SHT35;66279;42.820;23.374;2023-10-09T10:44:26;21.90;27.31
77247;SHT35;66279;42.820;23.374;2023-10-09T10:47:11;21.66;26.67
77247;SHT35;66279;42.820;23.374;2023-10-09T10:49:58;22.02;26.24
77247;SHT35;66279;42.820;23.374;2023-10-09T10:52:25;22.18;26.31
77247;SHT35;66279;42.820;23.374;2023-10-09T10:55:17;22.57;26.89
77247;SHT35;66279;42.820;23.374;2023-10-09T10:57:44;22.16;25.04
77247;SHT35;66279;42.820;23.374;2023-10-09T11:00:28;22.44;24.71
77247;SHT35;66279;42.820;23.374;2023-10-09T11:03:22;22.44;25.37
77247;SHT35;66279;42.820;23.374;2023-10-09T11:06:31;21.86;24.81
77247;SHT35;66279;42.820;23.374;2023-10-09T11:09:04;22.55;24.80
77247;SHT35;66279;42.820;23.374;2023-10-09T11:11:48;22.93;24.95
77247;SHT35;66279;42.820;23.374;2023-10-09T11:14:14;23.03;24.32
77247;SHT35;66279;42.820;23.374;2023-10-09T11:16:41;22.75;23.61
77247;SHT35;66279;42.820;23.374;2023-10-09T11:19:18;22.53;23.67
77247;SHT35;66279;42.820;23.374;2023-10-09T11:21:53;22.86;24.73
77247;SHT35;66279;42.820;23.374;2023-10-09T11:24:32;22.92;23.07
77247;SHT35;66279;42.820;23.374;2023-10-09T11:27:05;22.53;24.16
77247;SHT35;66279;42.820;23.374;2023-10-09T11:29:32;22.65;23.58
77247;SHT35;66279;42.820;23.374;2023-10-09T11:32:17;22.55;23.85
77247;SHT35;66279;42.820;23.374;2023-10-09T11:37:34;22.67;24.11
77247;SHT35;66279;42.820;23.374;2023-10-09T11:40:27;22.70;23.31
77247;SHT35;66279;42.820;23.374;2023-10-09T11:43:00;22.41;24.40
77247;SHT35;66279;42.820;23.374;2023-10-09T11:45:27;23.10;24.13
77247;SHT35;66279;42.820;23.374;2023-10-09T11:48:16;23.13;23.58
77247;SHT35;66279;42.820;23.374;2023-10-09T11:50:51;23.15;24.37
77247;SHT35;66279;42.820;23.374;2023-10-09T11:53:18;22.44;23.50
77247;SHT35;66279;42.820;23.374;2023-10-09T11:55:51;22.14;24.16
77247;SHT35;66279;42.820;23.374;2023-10-09T11:58:22;22.01;24.29
77247;SHT35;66279;42.820;23.374;2023-10-09T12:03:17;22.48;24.16
77247;SHT35;66279;42.820;23.374;2023-10-09T12:05:42;22.77;24.40
77247;SHT35;66279;42.820;23.374;2023-10-09T12:08:12;22.48;23.13
77247;SHT35;66279;42.820;23.374;2023-10-09T12:10:41;22.73;24.22
77247;SHT35;66279;42.820;23.374;2023-10-09T12:13:06;22.89;23.55
77247;SHT35;66279;42.820;23.374;2023-10-09T12:15:33;22.87;23.09
77247;SHT35;66279;42.820;23.374;2023-10-09T12:18:06;23.00;23.19
77247;SHT35;66279;42.820;23.374;2023-10-09T12:20:40;23.06;22.70
77247;SHT35;66279;42.820;23.374;2023-10-09T12:23:06;22.99;23.20
77247;SHT35;66279;42.820;23.374;2023-10-09T12:25:33;22.87;23.54
77247;SHT35;66279;42.820;23.374;2023-10-09T12:28:00;22.70;23.50
77247;SHT35;66279;42.820;23.374;2023-10-09T12:30:29;22.73;22.81
77247;SHT35;66279;42.820;23.374;2023-10-09T12:32:58;22.82;23.29
77247;SHT35;66279;42.820;23.374;2023-10-09T12:35:25;22.76;22.93
77247;SHT35;66279;42.820;23.374;2023-10-09T12:37:54;22.90;22.97
77247;SHT35;66279;42.820;23.374;2023-10-09T12:40:23;22.93;23.16
77247;SHT35;66279;42.820;23.374;2023-10-09T12:42:51;22.87;23.63
77247;SHT35;66279;42.820;23.374;2023-10-09T12:45:19;22.66;24.28
77247;SHT35;66279;42.820;23.374;2023-10-09T12:47:54;22.59;23.70
77247;SHT35;66279;42.820;23.374;2023-10-09T12:50:34;22.38;23.10
77247;SHT35;66279;42.820;23.374;2023-10-09T12:53:00;23.06;23.82
77247;SHT35;66279;42.820;23.374;2023-10-09T12:55:39;23.34;22.96
77247;SHT35;66279;42.820;23.374;2023-10-09T12:58:09;22.93;22.21
77247;SHT35;66279;42.820;23.374;2023-10-09T13:00:36;22.36;22.96
77247;SHT35;66279;42.820;23.374;2023-10-09T13:03:15;22.44;23.25
77247;SHT35;66279;42.820;23.374;2023-10-09T13:05:51;22.42;23.81
77247;SHT35;66279;42.820;23.374;2023-10-09T13:08:24;22.82;23.66
77247;SHT35;66279;42.820;23.374;2023-10-09T13:10:57;23.06;24.30
77247;SHT35;66279;42.820;23.374;2023-10-09T13:13:29;23.28;23.19
77247;SHT35;66279;42.820;23.374;2023-10-09T13:16:09;23.50;23.96
77247;SHT35;66279;42.820;23.374;2023-10-09T13:18:41;23.40;22.61
77247;SHT35;66279;42.820;23.374;2023-10-09T13:21:33;22.96;24.23
77247;SHT35;66279;42.820;23.374;2023-10-09T13:23:59;22.99;24.07
77247;SHT35;66279;42.820;23.374;2023-10-09T13:26:27;22.89;23.50
77247;SHT35;66279;42.820;23.374;2023-10-09T13:28:57;23.00;24.37
77247;SHT35;66279;42.820;23.374;2023-10-09T13:31:24;23.38;24.38
77247;SHT35;66279;42.820;23.374;2023-10-09T13:33:53;23.02;23.13
77247;SHT35;66279;42.820;23.374;2023-10-09T13:36:24;23.08;22.32
77247;SHT35;66279;42.820;23.374;2023-10-09T13:39:01;23.33;23.90
77247;SHT35;66279;42.820;23.374;2023-10-09T13:41:46;23.51;24.14
77247;SHT35;66279;42.820;23.374;2023-10-09T13:44:11;23.06;23.37
77247;SHT35;66279;42.820;23.374;2023-10-09T13:46:37;22.79;23.78
77247;SHT35;66279;42.820;23.374;2023-10-09T13:49:07;22.87;23.40
77247;SHT35;66279;42.820;23.374;2023-10-09T13:51:38;22.83;24.18
77247;SHT35;66279;42.820;23.374;2023-10-09T13:54:10;22.72;23.46
77247;SHT35;66279;42.820;23.374;2023-10-09T13:56:35;22.65;23.95
77247;SHT35;66279;42.820;23.374;2023-10-09T13:59:04;22.77;24.13
77247;SHT35;66279;42.820;23.374;2023-10-09T14:01:39;22.83;24.77
77247;SHT35;66279;42.820;23.374;2023-10-09T14:04:05;22.60;23.22
77247;SHT35;66279;42.820;23.374;2023-10-09T14:06:32;22.77;24.38
77247;SHT35;66279;42.820;23.374;2023-10-09T14:09:03;22.96;23.95
77247;SHT35;66279;42.820;23.374;2023-10-09T14:11:34;22.89;23.74
77247;SHT35;66279;42.820;23.374;2023-10-09T14:14:05;22.51;23.61
77247;SHT35;66279;42.820;23.374;2023-10-09T14:16:35;22.42;24.70
77247;SHT35;66279;42.820;23.374;2023-10-09T14:19:01;22.05;24.67
77247;SHT35;66279;42.820;23.374;2023-10-09T14:21:32;22.38;24.88
77247;SHT35;66279;42.820;23.374;2023-10-09T14:24:03;22.32;25.45
77247;SHT35;66279;42.820;23.374;2023-10-09T14:26:41;22.36;25.76
77247;SHT35;66279;42.820;23.374;2023-10-09T14:29:06;22.36;26.24
77247;SHT35;66279;42.820;23.374;2023-10-09T14:31:32;22.28;27.15
77247;SHT35;66279;42.820;23.374;2023-10-09T14:34:04;22.28;26.59
77247;SHT35;66279;42.820;23.374;2023-10-09T14:36:30;21.88;27.48
77247;SHT35;66279;42.820;23.374;2023-10-09T14:39:02;21.76;26.53
77247;SHT35;66279;42.820;23.374;2023-10-09T14:41:29;21.66;26.80
77247;SHT35;66279;42.820;23.374;2023-10-09T14:43:58;21.73;27.11
77247;SHT35;66279;42.820;23.374;2023-10-09T14:46:24;21.98;27.09
77247;SHT35;66279;42.820;23.374;2023-10-09T14:48:54;21.66;26.30
77247;SHT35;66279;42.820;23.374;2023-10-09T14:51:21;21.53;27.57
77247;SHT35;66279;42.820;23.374;2023-10-09T14:53:58;21.30;27.47
77247;SHT35;66279;42.820;23.374;2023-10-09T14:56:29;21.30;28.30
77247;SHT35;66279;42.820;23.374;2023-10-09T14:58:59;21.49;28.35
77247;SHT35;66279;42.820;23.374;2023-10-09T15:01:26;21.45;29.09
77247;SHT35;66279;42.820;23.374;2023-10-09T15:03:58;21.60;29.82
77247;SHT35;66279;42.820;23.374;2023-10-09T15:06:25;21.60;29.73
77247;SHT35;66279;42.820;23.374;2023-10-09T15:08:53;21.23;27.61
77247;SHT35;66279;42.820;23.374;2023-10-09T15:11:25;21.03;28.05
77247;SHT35;66279;42.820;23.374;2023-10-09T15:13:52;21.05;29.47
77247;SHT35;66279;42.820;23.374;2023-10-09T15:16:18;21.00;30.11
77247;SHT35;66279;42.820;23.374;2023-10-09T15:18:47;21.09;28.84
77247;SHT35;66279;42.820;23.374;2023-10-09T15:21:20;21.02;28.61
77247;SHT35;66279;42.820;23.374;2023-10-09T15:23:58;20.99;28.90
77247;SHT35;66279;42.820;23.374;2023-10-09T15:26:24;21.00;29.83
77247;SHT35;66279;42.820;23.374;2023-10-09T15:28:53;21.00;28.55
77247;SHT35;66279;42.820;23.374;2023-10-09T15:31:18;20.84;29.69
77247;SHT35;66279;42.820;23.374;2023-10-09T15:33:47;20.72;29.93
77247;SHT35;66279;42.820;23.374;2023-10-09T15:36:15;20.65;29.83
77247;SHT35;66279;42.820;23.374;2023-10-09T15:38:48;20.59;29.95
77247;SHT35;66279;42.820;23.374;2023-10-09T15:41:15;20.51;30.60
77247;SHT35;66279;42.820;23.374;2023-10-09T15:43:41;20.37;32.55
77247;SHT35;66279;42.820;23.374;2023-10-09T15:46:13;20.17;33.16
77247;SHT35;66279;42.820;23.374;2023-10-09T15:48:43;19.96;33.58
77247;SHT35;66279;42.820;23.374;2023-10-09T15:51:12;19.85;35.08
77247;SHT35;66279;42.820;23.374;2023-10-09T15:53:42;19.72;35.29
77247;SHT35;66279;42.820;23.374;2023-10-09T15:56:08;19.62;36.53
77247;SHT35;66279;42.820;23.374;2023-10-09T15:58:33;19.28;35.27
77247;SHT35;66279;42.820;23.374;2023-10-09T16:00:59;18.96;35.73
77247;SHT35;66279;42.820;23.374;2023-10-09T16:03:25;18.42;37.60
77247;SHT35;66279;42.820;23.374;2023-10-09T16:05:52;18.19;38.32
77247;SHT35;66279;42.820;23.374;2023-10-09T16:08:18;18.19;39.95
77247;SHT35;66279;42.820;23.374;2023-10-09T16:10:45;17.98;39.74
77247;SHT35;66279;42.820;23.374;2023-10-09T16:13:12;17.97;39.13
77247;SHT35;66279;42.820;23.374;2023-10-09T16:15:42;17.91;37.32
77247;SHT35;66279;42.820;23.374;2023-10-09T16:18:11;17.92;38.33
77247;SHT35;66279;42.820;23.374;2023-10-09T16:20:37;17.81;38.39
77247;SHT35;66279;42.820;23.374;2023-10-09T16:23:03;17.74;39.09
77247;SHT35;66279;42.820;23.374;2023-10-09T16:25:32;17.62;40.48
77247;SHT35;66279;42.820;23.374;2023-10-09T16:28:02;17.20;40.59
77247;SHT35;66279;42.820;23.374;2023-10-09T16:30:27;17.13;41.83
77247;SHT35;66279;42.820;23.374;2023-10-09T16:32:54;16.96;41.89
77247;SHT35;66279;42.820;23.374;2023-10-09T16:35:19;16.81;42.21
77247;SHT35;66279;42.820;23.374;2023-10-09T16:37:49;16.75;41.56
77247;SHT35;66279;42.820;23.374;2023-10-09T16:40:15;16.76;42.79
77247;SHT35;66279;42.820;23.374;2023-10-09T16:42:41;16.92;42.11
77247;SHT35;66279;42.820;23.374;2023-10-09T16:45:10;16.31;44.38
77247;SHT35;66279;42.820;23.374;2023-10-09T16:47:44;16.40;43.13
77247;SHT35;66279;42.820;23.374;2023-10-09T16:50:10;16.28;43.74
77247;SHT35;66279;42.820;23.374;2023-10-09T16:52:37;16.34;43.77
77247;SHT35;66279;42.820;23.374;2023-10-09T16:55:07;16.43;44.55
77247;SHT35;66279;42.820;23.374;2023-10-09T16:57:39;16.48;44.89
77247;SHT35;66279;42.820;23.374;2023-10-09T17:00:09;16.05;45.15
77247;SHT35;66279;42.820;23.374;2023-10-09T17:02:43;16.20;45.09
77247;SHT35;66279;42.820;23.374;2023-10-09T17:05:10;16.10;45.73
77247;SHT35;66279;42.820;23.374;2023-10-09T17:07:41;15.89;44.78
77247;SHT35;66279;42.820;23.374;2023-10-09T17:10:10;15.95;45.59
77247;SHT35;66279;42.820;23.374;2023-10-09T17:12:43;15.89;45.11
77247;SHT35;66279;42.820;23.374;2023-10-09T17:15:12;15.87;45.33
77247;SHT35;66279;42.820;23.374;2023-10-09T17:17:44;15.69;46.16
77247;SHT35;66279;42.820;23.374;2023-10-09T17:20:12;15.52;45.94
77247;SHT35;66279;42.820;23.374;2023-10-09T17:22:38;15.35;47.21
77247;SHT35;66279;42.820;23.374;2023-10-09T17:25:04;15.10;47.66
77247;SHT35;66279;42.820;23.374;2023-10-09T17:27:30;15.10;47.81
77247;SHT35;66279;42.820;23.374;2023-10-09T17:29:55;14.96;47.94
77247;SHT35;66279;42.820;23.374;2023-10-09T17:32:23;14.81;48.95
77247;SHT35;66279;42.820;23.374;2023-10-09T17:34:51;14.76;48.00
77247;SHT35;66279;42.820;23.374;2023-10-09T17:37:19;14.53;48.81
77247;SHT35;66279;42.820;23.374;2023-10-09T17:39:48;14.29;50.52
77247;SHT35;66279;42.820;23.374;2023-10-09T17:42:13;14.04;51.37
77247;SHT35;66279;42.820;23.374;2023-10-09T17:44:39;13.75;52.05
77247;SHT35;66279;42.820;23.374;2023-10-09T17:47:05;13.77;52.17
77247;SHT35;66279;42.820;23.374;2023-10-09T17:49:31;13.92;51.49
77247;SHT35;66279;42.820;23.374;2023-10-09T17:51:56;13.81;52.49
77247;SHT35;66279;42.820;23.374;2023-10-09T17:54:25;13.50;54.38
77247;SHT35;66279;42.820;23.374;2023-10-09T17:56:51;13.27;55.25
77247;SHT35;66279;42.820;23.374;2023-10-09T17:59:17;13.49;54.48
77247;SHT35;66279;42.820;23.374;2023-10-09T18:01:43;13.33;54.34
77247;SHT35;66279;42.820;23.374;2023-10-09T18:04:09;13.42;53.43
77247;SHT35;66279;42.820;23.374;2023-10-09T18:06:39;13.53;53.14
77247;SHT35;66279;42.820;23.374;2023-10-09T18:09:05;13.56;53.18
77247;SHT35;66279;42.820;23.374;2023-10-09T18:11:45;13.67;52.93
77247;SHT35;66279;42.820;23.374;2023-10-09T18:14:11;13.67;52.36
77247;SHT35;66279;42.820;23.374;2023-10-09T18:16:42;13.75;52.52